sensor_id;sensor_type;location;lat;lon;timestamp;pressure;altitude;pressure_sealevel;temperature;humidity
79028;BME280;68427;48.476;19.102;2023-07-29T00:00:48;97156.56;;;16.01;89.56
79028;BME280;68427;48.476;19.102;2023-07-29T00:03:14;97149.03;;;15.93;90.29
79028;BME280;68427;48.476;19.102;2023-07-29T00:05:40;97159.25;;;15.89;90.37
79028;BME280;68427;48.476;19.102;2023-07-29T00:08:07;97158.22;;;15.90;90.33
79028;BME280;68427;48.476;19.102;2023-07-29T00:10:36;97151.66;;;15.93;89.81
79028;BME280;68427;48.476;19.102;2023-07-29T00:13:02;97165.19;;;15.96;89.99
79028;BME280;68427;48.476;19.102;2023-07-29T00:15:28;97160.47;;;15.98;90.13
79028;BME280;68427;48.476;19.102;2023-07-29T00:17:54;97156.25;;;15.97;90.45
79028;BME280;68427;48.476;19.102;2023-07-29T00:20:19;97154.97;;;16.00;90.29
79028;BME280;68427;48.476;19.102;2023-07-29T00:22:45;97153.34;;;15.99;90.60
79028;BME280;68427;48.476;19.102;2023-07-29T00:25:12;97154.97;;;16.00;91.29
79028;BME280;68427;48.476;19.102;2023-07-29T00:27:38;97142.78;;;15.99;90.66
79028;BME280;68427;48.476;19.102;2023-07-29T00:30:04;97137.50;;;15.99;91.15
79028;BME280;68427;48.476;19.102;2023-07-29T00:32:30;97132.78;;;16.01;91.55
79028;BME280;68427;48.476;19.102;2023-07-29T00:34:56;97144.16;;;16.02;91.82
79028;BME280;68427;48.476;19.102;2023-07-29T00:37:22;97147.91;;;16.06;91.65
79028;BME280;68427;48.476;19.102;2023-07-29T00:39:47;97149.03;;;16.10;91.33
79028;BME280;68427;48.476;19.102;2023-07-29T00:42:15;97138.00;;;16.13;91.38
79028;BME280;68427;48.476;19.102;2023-07-29T00:44:40;97135.09;;;16.14;90.91
79028;BME280;68427;48.476;19.102;2023-07-29T00:47:07;97129.50;;;16.11;90.79
79028;BME280;68427;48.476;19.102;2023-07-29T00:49:33;97128.47;;;16.12;90.98
79028;BME280;68427;48.476;19.102;2023-07-29T00:51:59;97122.94;;;16.13;91.21
79028;BME280;68427;48.476;19.102;2023-07-29T00:54:25;97127.19;;;16.14;90.66
79028;BME280;68427;48.476;19.102;2023-07-29T00:56:50;97131.66;;;16.14;90.94
79028;BME280;68427;48.476;19.102;2023-07-29T00:59:17;97127.44;;;16.13;91.16
79028;BME280;68427;48.476;19.102;2023-07-29T01:01:43;97125.34;;;16.15;91.05
79028;BME280;68427;48.476;19.102;2023-07-29T01:04:09;97134.31;;;16.14;91.09
79028;BME280;68427;48.476;19.102;2023-07-29T01:06:44;97132.47;;;16.14;91.41
79028;BME280;68427;48.476;19.102;2023-07-29T01:09:17;97133.75;;;16.12;92.15
79028;BME280;68427;48.476;19.102;2023-07-29T01:11:55;97129.03;;;16.14;91.81
79028;BME280;68427;48.476;19.102;2023-07-29T01:14:31;97120.03;;;16.15;91.44
79028;BME280;68427;48.476;19.102;2023-07-29T01:17:02;97121.91;;;16.14;91.32
79028;BME280;68427;48.476;19.102;2023-07-29T01:19:42;97120.63;;;16.17;90.91
79028;BME280;68427;48.476;19.102;2023-07-29T01:22:10;97116.13;;;16.17;91.14
79028;BME280;68427;48.476;19.102;2023-07-29T01:24:37;97124.88;;;16.18;91.12
79028;BME280;68427;48.476;19.102;2023-07-29T01:27:03;97123.81;;;16.19;91.38
79028;BME280;68427;48.476;19.102;2023-07-29T01:29:30;97128.31;;;16.18;91.07
79028;BME280;68427;48.476;19.102;2023-07-29T01:32:01;97123.03;;;16.18;90.66
79028;BME280;68427;48.476;19.102;2023-07-29T01:34:34;97116.13;;;16.17;90.71
79028;BME280;68427;48.476;19.102;2023-07-29T01:37:02;97116.13;;;16.17;91.32
79028;BME280;68427;48.476;19.102;2023-07-29T01:39:37;97116.13;;;16.01;92.05
79028;BME280;68427;48.476;19.102;2023-07-29T01:42:03;97107.06;;;15.96;92.80
79028;BME280;68427;48.476;19.102;2023-07-29T01:44:29;97113.50;;;16.01;92.55
79028;BME280;68427;48.476;19.102;2023-07-29T01:46:55;97106.44;;;16.06;92.63
79028;BME280;68427;48.476;19.102;2023-07-29T01:49:21;97107.25;;;16.07;92.96
79028;BME280;68427;48.476;19.102;2023-07-29T01:51:46;97113.09;;;16.09;93.26
79028;BME280;68427;48.476;19.102;2023-07-29T01:54:12;97111.25;;;16.09;93.16
79028;BME280;68427;48.476;19.102;2023-07-29T01:56:39;97112.03;;;16.10;93.25
79028;BME280;68427;48.476;19.102;2023-07-29T01:59:05;97107.59;;;16.10;93.16
79028;BME280;68427;48.476;19.102;2023-07-29T02:01:30;97113.88;;;16.09;93.64
79028;BME280;68427;48.476;19.102;2023-07-29T02:03:56;97113.88;;;16.09;93.40
79028;BME280;68427;48.476;19.102;2023-07-29T02:06:22;97121.31;;;16.12;93.79
79028;BME280;68427;48.476;19.102;2023-07-29T02:08:48;97124.22;;;16.11;93.74
79028;BME280;68427;48.476;19.102;2023-07-29T02:11:13;97127.66;;;16.11;94.12
79028;BME280;68427;48.476;19.102;2023-07-29T02:13:41;97123.66;;;16.09;94.15
79028;BME280;68427;48.476;19.102;2023-07-29T02:16:07;97125.81;;;16.12;94.03
79028;BME280;68427;48.476;19.102;2023-07-29T02:18:33;97118.88;;;16.06;94.55
79028;BME280;68427;48.476;19.102;2023-07-29T02:20:58;97109.31;;;16.05;94.26
79028;BME280;68427;48.476;19.102;2023-07-29T02:23:24;97109.22;;;15.99;95.09
79028;BME280;68427;48.476;19.102;2023-07-29T02:25:50;97111.78;;;15.94;95.56
79028;BME280;68427;48.476;19.102;2023-07-29T02:28:16;97120.06;;;15.98;95.81
79028;BME280;68427;48.476;19.102;2023-07-29T02:30:43;97116.13;;;16.01;94.99
79028;BME280;68427;48.476;19.102;2023-07-29T02:33:11;97115.09;;;16.02;94.53
79028;BME280;68427;48.476;19.102;2023-07-29T02:35:37;97107.72;;;16.04;94.68
79028;BME280;68427;48.476;19.102;2023-07-29T02:38:03;97116.22;;;16.06;93.98
79028;BME280;68427;48.476;19.102;2023-07-29T02:40:28;97107.41;;;16.00;94.48
79028;BME280;68427;48.476;19.102;2023-07-29T02:42:54;97109.50;;;15.98;94.87
79028;BME280;68427;48.476;19.102;2023-07-29T02:45:20;97110.59;;;16.02;94.52
79028;BME280;68427;48.476;19.102;2023-07-29T02:47:47;97113.56;;;16.06;94.10
79028;BME280;68427;48.476;19.102;2023-07-29T02:50:13;97110.94;;;16.06;94.08
79028;BME280;68427;48.476;19.102;2023-07-29T02:52:39;97120.22;;;16.08;94.16
79028;BME280;68427;48.476;19.102;2023-07-29T02:55:06;97123.44;;;16.10;93.79
79028;BME280;68427;48.476;19.102;2023-07-29T02:57:31;97131.09;;;16.12;93.56
79028;BME280;68427;48.476;19.102;2023-07-29T02:59:57;97126.88;;;16.11;93.65
79028;BME280;68427;48.476;19.102;2023-07-29T03:02:23;97135.59;;;16.11;94.02
79028;BME280;68427;48.476;19.102;2023-07-29T03:04:50;97130.88;;;16.13;93.89
79028;BME280;68427;48.476;19.102;2023-07-29T03:07:15;97128.22;;;16.13;93.50
79028;BME280;68427;48.476;19.102;2023-07-29T03:09:41;97125.59;;;16.13;93.25
79028;BME280;68427;48.476;19.102;2023-07-29T03:12:07;97123.19;;;16.12;92.88
79028;BME280;68427;48.476;19.102;2023-07-29T03:14:33;97127.97;;;16.15;93.09
79028;BME280;68427;48.476;19.102;2023-07-29T03:17:02;97133.03;;;16.16;93.78
79028;BME280;68427;48.476;19.102;2023-07-29T03:19:28;97135.69;;;16.16;93.17
79028;BME280;68427;48.476;19.102;2023-07-29T03:21:55;97131.66;;;16.14;93.67
79028;BME280;68427;48.476;19.102;2023-07-29T03:24:21;97135.59;;;16.11;93.46
79028;BME280;68427;48.476;19.102;2023-07-29T03:26:46;97144.00;;;16.08;93.63
79028;BME280;68427;48.476;19.102;2023-07-29T03:29:12;97147.44;;;16.09;93.16
79028;BME280;68427;48.476;19.102;2023-07-29T03:31:38;97152.25;;;16.12;93.79
79028;BME280;68427;48.476;19.102;2023-07-29T03:34:03;97148.94;;;16.05;94.03
79028;BME280;68427;48.476;19.102;2023-07-29T03:36:29;97140.94;;;15.99;94.30
79028;BME280;68427;48.476;19.102;2023-07-29T03:38:56;97155.50;;;16.02;94.08
79028;BME280;68427;48.476;19.102;2023-07-29T03:41:23;97155.84;;;16.06;93.85
79028;BME280;68427;48.476;19.102;2023-07-29T03:43:49;97155.94;;;16.11;94.09
79028;BME280;68427;48.476;19.102;2023-07-29T03:46:15;97159.69;;;16.15;93.93
79028;BME280;68427;48.476;19.102;2023-07-29T03:48:44;97164.50;;;16.18;94.07
79028;BME280;68427;48.476;19.102;2023-07-29T03:51:10;97165.88;;;16.20;93.81
79028;BME280;68427;48.476;19.102;2023-07-29T03:53:36;97169.09;;;16.23;93.56
79028;BME280;68427;48.476;19.102;2023-07-29T03:56:03;97161.47;;;16.26;93.09
79028;BME280;68427;48.476;19.102;2023-07-29T03:58:29;97156.75;;;16.28;92.60
79028;BME280;68427;48.476;19.102;2023-07-29T04:00:55;97158.91;;;16.31;92.77
79028;BME280;68427;48.476;19.102;2023-07-29T04:03:20;97160.84;;;16.36;93.12
79028;BME280;68427;48.476;19.102;2023-07-29T04:05:46;97157.72;;;16.39;93.16
79028;BME280;68427;48.476;19.102;2023-07-29T04:08:12;97159.78;;;16.37;92.41
79028;BME280;68427;48.476;19.102;2023-07-29T04:10:37;97153.41;;;16.33;92.75
79028;BME280;68427;48.476;19.102;2023-07-29T04:13:05;97151.28;;;16.35;92.46
79028;BME280;68427;48.476;19.102;2023-07-29T04:15:30;97152.66;;;16.37;92.59
79028;BME280;68427;48.476;19.102;2023-07-29T04:17:56;97154.59;;;16.42;92.60
79028;BME280;68427;48.476;19.102;2023-07-29T04:20:22;97161.00;;;16.46;92.40
79028;BME280;68427;48.476;19.102;2023-07-29T04:22:47;97159.94;;;16.47;92.07
79028;BME280;68427;48.476;19.102;2023-07-29T04:25:13;97161.56;;;16.48;91.43
79028;BME280;68427;48.476;19.102;2023-07-29T04:27:39;97157.38;;;16.52;91.94
79028;BME280;68427;48.476;19.102;2023-07-29T04:30:07;97165.16;;;16.59;91.75
79028;BME280;68427;48.476;19.102;2023-07-29T04:32:33;97164.09;;;16.60;91.61
79028;BME280;68427;48.476;19.102;2023-07-29T04:34:59;97169.72;;;16.63;90.95
79028;BME280;68427;48.476;19.102;2023-07-29T04:37:24;97172.59;;;16.62;91.35
79028;BME280;68427;48.476;19.102;2023-07-29T04:39:50;97176.03;;;16.62;91.86
79028;BME280;68427;48.476;19.102;2023-07-29T04:42:16;97173.97;;;16.64;91.47
79028;BME280;68427;48.476;19.102;2023-07-29T04:44:41;97171.09;;;16.66;91.55
79028;BME280;68427;48.476;19.102;2023-07-29T04:47:10;97165.88;;;16.71;90.67
79028;BME280;68427;48.476;19.102;2023-07-29T04:49:35;97159.72;;;16.66;90.52
79028;BME280;68427;48.476;19.102;2023-07-29T04:52:01;97161.25;;;16.78;90.75
79028;BME280;68427;48.476;19.102;2023-07-29T04:54:27;97161.31;;;16.83;91.21
79028;BME280;68427;48.476;19.102;2023-07-29T04:56:52;97168.59;;;16.93;90.30
79028;BME280;68427;48.476;19.102;2023-07-29T04:59:18;97174.53;;;17.00;89.53
79028;BME280;68427;48.476;19.102;2023-07-29T05:01:44;97170.03;;;17.01;89.61
79028;BME280;68427;48.476;19.102;2023-07-29T05:04:11;97174.03;;;17.03;88.98
79028;BME280;68427;48.476;19.102;2023-07-29T05:06:36;97169.03;;;17.07;88.73
79028;BME280;68427;48.476;19.102;2023-07-29T05:09:13;97180.13;;;17.04;89.11
79028;BME280;68427;48.476;19.102;2023-07-29T05:11:38;97169.59;;;17.09;89.29
79028;BME280;68427;48.476;19.102;2023-07-29T05:14:05;97177.72;;;17.02;89.62
79028;BME280;68427;48.476;19.102;2023-07-29T05:16:31;97181.47;;;17.06;89.12
79028;BME280;68427;48.476;19.102;2023-07-29T05:18:57;97172.75;;;17.06;89.34
79028;BME280;68427;48.476;19.102;2023-07-29T05:21:24;97172.31;;;17.14;88.41
79028;BME280;68427;48.476;19.102;2023-07-29T05:23:50;97177.75;;;17.24;88.36
79028;BME280;68427;48.476;19.102;2023-07-29T05:26:16;97174.00;;;17.42;88.02
79028;BME280;68427;48.476;19.102;2023-07-29T05:28:41;97168.03;;;17.52;87.76
79028;BME280;68427;48.476;19.102;2023-07-29T05:31:07;97165.31;;;17.47;87.25
79028;BME280;68427;48.476;19.102;2023-07-29T05:33:32;97167.03;;;17.58;86.69
79028;BME280;68427;48.476;19.102;2023-07-29T05:35:58;97167.41;;;17.67;87.26
79028;BME280;68427;48.476;19.102;2023-07-29T05:38:25;97175.91;;;17.91;85.99
79028;BME280;68427;48.476;19.102;2023-07-29T05:40:51;97177.16;;;17.83;86.66
79028;BME280;68427;48.476;19.102;2023-07-29T05:43:17;97184.47;;;17.76;85.95
79028;BME280;68427;48.476;19.102;2023-07-29T05:45:45;97192.28;;;17.66;85.64
79028;BME280;68427;48.476;19.102;2023-07-29T05:48:11;97195.47;;;17.68;86.73
79028;BME280;68427;48.476;19.102;2023-07-29T05:50:37;97192.09;;;17.73;86.18
79028;BME280;68427;48.476;19.102;2023-07-29T05:53:02;97195.47;;;17.68;86.53
79028;BME280;68427;48.476;19.102;2023-07-29T05:55:30;97198.03;;;17.80;85.19
79028;BME280;68427;48.476;19.102;2023-07-29T05:57:55;97208.00;;;17.95;84.53
79028;BME280;68427;48.476;19.102;2023-07-29T06:00:23;97207.00;;;18.01;83.85
79028;BME280;68427;48.476;19.102;2023-07-29T06:02:48;97206.28;;;18.10;83.42
79028;BME280;68427;48.476;19.102;2023-07-29T06:05:14;97207.13;;;18.43;83.06
79028;BME280;68427;48.476;19.102;2023-07-29T06:07:40;97213.94;;;18.61;81.90
79028;BME280;68427;48.476;19.102;2023-07-29T06:10:09;97210.81;;;18.69;81.11
79028;BME280;68427;48.476;19.102;2023-07-29T06:12:38;97210.34;;;18.77;81.15
79028;BME280;68427;48.476;19.102;2023-07-29T06:15:05;97216.63;;;18.98;80.43
79028;BME280;68427;48.476;19.102;2023-07-29T06:17:31;97219.84;;;19.11;79.07
79028;BME280;68427;48.476;19.102;2023-07-29T06:19:56;97224.16;;;19.17;78.72
79028;BME280;68427;48.476;19.102;2023-07-29T06:22:22;97230.88;;;19.30;78.01
79028;BME280;68427;48.476;19.102;2023-07-29T06:24:48;97230.16;;;19.45;77.84
79028;BME280;68427;48.476;19.102;2023-07-29T06:27:13;97229.69;;;19.58;77.77
79028;BME280;68427;48.476;19.102;2023-07-29T06:29:40;97238.94;;;19.50;77.44
79028;BME280;68427;48.476;19.102;2023-07-29T06:32:07;97234.91;;;19.42;77.47
79028;BME280;68427;48.476;19.102;2023-07-29T06:34:32;97234.88;;;19.37;77.89
79028;BME280;68427;48.476;19.102;2023-07-29T06:36:58;97226.31;;;19.25;78.37
79028;BME280;68427;48.476;19.102;2023-07-29T06:39:24;97232.53;;;20.04;77.08
79028;BME280;68427;48.476;19.102;2023-07-29T06:41:49;97229.94;;;21.01;73.81
79028;BME280;68427;48.476;19.102;2023-07-29T06:44:15;97227.75;;;21.49;70.68
79028;BME280;68427;48.476;19.102;2023-07-29T06:46:42;97222.91;;;22.21;68.89
79028;BME280;68427;48.476;19.102;2023-07-29T06:49:08;97226.31;;;22.67;65.37
79028;BME280;68427;48.476;19.102;2023-07-29T06:51:34;97217.78;;;22.64;65.27
79028;BME280;68427;48.476;19.102;2023-07-29T06:54:00;97221.53;;;23.51;63.72
79028;BME280;68427;48.476;19.102;2023-07-29T06:56:26;97215.03;;;24.90;59.85
79028;BME280;68427;48.476;19.102;2023-07-29T06:58:52;97214.34;;;24.84;57.65
79028;BME280;68427;48.476;19.102;2023-07-29T07:01:18;97220.91;;;24.40;59.93
79028;BME280;68427;48.476;19.102;2023-07-29T07:03:45;97203.63;;;23.94;60.17
79028;BME280;68427;48.476;19.102;2023-07-29T07:06:10;97205.78;;;23.92;61.59
79028;BME280;68427;48.476;19.102;2023-07-29T07:08:36;97210.38;;;23.68;62.68
79028;BME280;68427;48.476;19.102;2023-07-29T07:11:02;97203.66;;;23.46;62.50
79028;BME280;68427;48.476;19.102;2023-07-29T07:13:27;97206.34;;;23.22;62.59
79028;BME280;68427;48.476;19.102;2023-07-29T07:15:54;97209.78;;;22.94;64.34
79028;BME280;68427;48.476;19.102;2023-07-29T07:18:20;97201.69;;;22.75;66.49
79028;BME280;68427;48.476;19.102;2023-07-29T07:20:49;97206.47;;;22.43;67.19
79028;BME280;68427;48.476;19.102;2023-07-29T07:23:15;97201.69;;;22.40;65.96
79028;BME280;68427;48.476;19.102;2023-07-29T07:25:41;97203.19;;;22.52;66.45
79028;BME280;68427;48.476;19.102;2023-07-29T07:28:07;97204.38;;;22.75;65.56
79028;BME280;68427;48.476;19.102;2023-07-29T07:30:33;97203.75;;;23.12;64.81
79028;BME280;68427;48.476;19.102;2023-07-29T07:32:59;97197.41;;;23.08;64.30
79028;BME280;68427;48.476;19.102;2023-07-29T07:35:25;97192.41;;;23.25;63.68
79028;BME280;68427;48.476;19.102;2023-07-29T07:37:52;97193.81;;;23.42;62.10
79028;BME280;68427;48.476;19.102;2023-07-29T07:40:17;97197.19;;;23.53;62.80
79028;BME280;68427;48.476;19.102;2023-07-29T07:42:43;97198.53;;;23.74;63.24
79028;BME280;68427;48.476;19.102;2023-07-29T07:45:09;97196.44;;;23.90;63.83
79028;BME280;68427;48.476;19.102;2023-07-29T07:47:34;97192.03;;;24.89;59.23
79028;BME280;68427;48.476;19.102;2023-07-29T07:50:00;97185.28;;;26.02;53.94
79028;BME280;68427;48.476;19.102;2023-07-29T07:52:26;97179.69;;;26.35;53.53
79028;BME280;68427;48.476;19.102;2023-07-29T07:54:53;97186.50;;;26.55;53.19
79028;BME280;68427;48.476;19.102;2023-07-29T07:57:19;97182.25;;;26.85;54.12
79028;BME280;68427;48.476;19.102;2023-07-29T07:59:45;97180.16;;;27.13;51.76
79028;BME280;68427;48.476;19.102;2023-07-29T08:02:11;97176.44;;;27.23;52.07
79028;BME280;68427;48.476;19.102;2023-07-29T08:04:36;97180.47;;;27.34;51.55
79028;BME280;68427;48.476;19.102;2023-07-29T08:07:02;97169.75;;;27.60;51.19
79028;BME280;68427;48.476;19.102;2023-07-29T08:09:28;97173.84;;;27.49;51.48
79028;BME280;68427;48.476;19.102;2023-07-29T08:11:55;97179.63;;;27.25;51.12
79028;BME280;68427;48.476;19.102;2023-07-29T08:14:20;97176.06;;;27.15;53.18
79028;BME280;68427;48.476;19.102;2023-07-29T08:16:46;97174.16;;;27.16;52.54
79028;BME280;68427;48.476;19.102;2023-07-29T08:19:12;97167.00;;;27.34;52.79
79028;BME280;68427;48.476;19.102;2023-07-29T08:21:38;97165.25;;;28.21;47.80
79028;BME280;68427;48.476;19.102;2023-07-29T08:24:04;97170.41;;;28.79;46.71
79028;BME280;68427;48.476;19.102;2023-07-29T08:26:29;97166.22;;;28.99;45.90
79028;BME280;68427;48.476;19.102;2023-07-29T08:28:56;97162.94;;;28.84;48.60
79028;BME280;68427;48.476;19.102;2023-07-29T08:31:22;97161.75;;;28.56;47.55
79028;BME280;68427;48.476;19.102;2023-07-29T08:33:47;97159.72;;;29.08;47.48
79028;BME280;68427;48.476;19.102;2023-07-29T08:36:13;97148.59;;;29.69;47.20
79028;BME280;68427;48.476;19.102;2023-07-29T08:38:39;97150.97;;;31.50;40.74
79028;BME280;68427;48.476;19.102;2023-07-29T08:41:10;97146.91;;;33.76;38.40
79028;BME280;68427;48.476;19.102;2023-07-29T08:43:38;97141.44;;;34.11;35.73
79028;BME280;68427;48.476;19.102;2023-07-29T08:46:06;97140.47;;;34.42;36.34
79028;BME280;68427;48.476;19.102;2023-07-29T08:48:35;97144.91;;;33.57;38.62
79028;BME280;68427;48.476;19.102;2023-07-29T08:51:04;97131.81;;;35.25;34.46
79028;BME280;68427;48.476;19.102;2023-07-29T08:53:31;97125.66;;;34.01;36.60
79028;BME280;68427;48.476;19.102;2023-07-29T08:55:57;97127.84;;;33.56;36.56
79028;BME280;68427;48.476;19.102;2023-07-29T08:58:23;97131.53;;;32.85;38.59
79028;BME280;68427;48.476;19.102;2023-07-29T09:00:49;97129.19;;;32.11;39.85
79028;BME280;68427;48.476;19.102;2023-07-29T09:03:17;97131.00;;;31.54;42.57
79028;BME280;68427;48.476;19.102;2023-07-29T09:05:43;97132.25;;;30.62;44.62
79028;BME280;68427;48.476;19.102;2023-07-29T09:08:09;97121.47;;;29.87;45.97
79028;BME280;68427;48.476;19.102;2023-07-29T09:10:35;97121.69;;;28.93;48.34
79028;BME280;68427;48.476;19.102;2023-07-29T09:13:02;97124.66;;;28.35;51.64
79028;BME280;68427;48.476;19.102;2023-07-29T09:15:29;97130.25;;;27.87;52.58
79028;BME280;68427;48.476;19.102;2023-07-29T09:17:56;97126.63;;;27.25;55.46
79028;BME280;68427;48.476;19.102;2023-07-29T09:20:25;97126.03;;;26.97;56.59
79028;BME280;68427;48.476;19.102;2023-07-29T09:22:53;97117.50;;;26.64;57.41
79028;BME280;68427;48.476;19.102;2023-07-29T09:25:23;97118.28;;;26.42;58.03
79028;BME280;68427;48.476;19.102;2023-07-29T09:27:49;97117.63;;;26.59;57.94
79028;BME280;68427;48.476;19.102;2023-07-29T09:30:15;97119.13;;;26.74;57.41
79028;BME280;68427;48.476;19.102;2023-07-29T09:32:41;97112.50;;;26.80;57.48
79028;BME280;68427;48.476;19.102;2023-07-29T09:35:10;97107.50;;;27.35;55.91
79028;BME280;68427;48.476;19.102;2023-07-29T09:37:38;97113.03;;;27.30;54.37
79028;BME280;68427;48.476;19.102;2023-07-29T09:40:05;97115.81;;;27.17;55.68
79028;BME280;68427;48.476;19.102;2023-07-29T09:42:30;97113.41;;;27.06;56.14
79028;BME280;68427;48.476;19.102;2023-07-29T09:44:56;97111.88;;;26.83;55.25
79028;BME280;68427;48.476;19.102;2023-07-29T09:47:23;97111.88;;;26.51;56.89
79028;BME280;68427;48.476;19.102;2023-07-29T09:49:49;97112.50;;;26.26;58.44
79028;BME280;68427;48.476;19.102;2023-07-29T09:52:15;97107.69;;;26.14;60.58
79028;BME280;68427;48.476;19.102;2023-07-29T09:54:44;97111.81;;;25.98;60.20
79028;BME280;68427;48.476;19.102;2023-07-29T09:57:10;97113.03;;;25.78;57.89
79028;BME280;68427;48.476;19.102;2023-07-29T09:59:36;97096.94;;;25.92;59.36
79028;BME280;68427;48.476;19.102;2023-07-29T10:02:02;97103.72;;;26.34;57.09
79028;BME280;68427;48.476;19.102;2023-07-29T10:04:29;97087.69;;;29.00;47.47
79028;BME280;68427;48.476;19.102;2023-07-29T10:06:56;97093.78;;;31.14;44.21
79028;BME280;68427;48.476;19.102;2023-07-29T10:09:23;97083.16;;;31.58;41.11
79028;BME280;68427;48.476;19.102;2023-07-29T10:11:51;97073.03;;;31.18;42.11
79028;BME280;68427;48.476;19.102;2023-07-29T10:14:18;97083.16;;;32.43;38.41
79028;BME280;68427;48.476;19.102;2023-07-29T10:16:46;97075.66;;;32.36;35.70
79028;BME280;68427;48.476;19.102;2023-07-29T10:19:12;97075.59;;;32.80;35.89
79028;BME280;68427;48.476;19.102;2023-07-29T10:21:41;97079.81;;;33.45;35.83
79028;BME280;68427;48.476;19.102;2023-07-29T10:24:14;97079.47;;;34.01;35.55
79028;BME280;68427;48.476;19.102;2023-07-29T10:26:42;97076.50;;;33.35;34.01
79028;BME280;68427;48.476;19.102;2023-07-29T10:29:11;97074.34;;;32.46;33.70
79028;BME280;68427;48.476;19.102;2023-07-29T10:31:38;97074.06;;;30.89;37.83
79028;BME280;68427;48.476;19.102;2023-07-29T10:34:05;97077.34;;;30.25;40.25
79028;BME280;68427;48.476;19.102;2023-07-29T10:36:31;97078.34;;;29.57;41.94
79028;BME280;68427;48.476;19.102;2023-07-29T10:38:57;97075.72;;;29.19;39.95
79028;BME280;68427;48.476;19.102;2023-07-29T10:41:22;97078.03;;;28.99;39.95
79028;BME280;68427;48.476;19.102;2023-07-29T10:43:48;97077.75;;;28.83;39.54
79028;BME280;68427;48.476;19.102;2023-07-29T10:46:19;97075.31;;;28.70;39.54
79028;BME280;68427;48.476;19.102;2023-07-29T10:48:52;97079.47;;;28.41;42.21
79028;BME280;68427;48.476;19.102;2023-07-29T10:51:23;97087.59;;;28.32;43.97
79028;BME280;68427;48.476;19.102;2023-07-29T10:53:55;97086.06;;;27.96;41.29
79028;BME280;68427;48.476;19.102;2023-07-29T10:56:26;97088.88;;;27.74;42.78
79028;BME280;68427;48.476;19.102;2023-07-29T10:58:52;97073.03;;;27.46;44.40
79028;BME280;68427;48.476;19.102;2023-07-29T11:01:28;97076.78;;;27.28;44.22
79028;BME280;68427;48.476;19.102;2023-07-29T11:04:25;97075.63;;;27.11;44.05
79028;BME280;68427;48.476;19.102;2023-07-29T11:07:23;97064.34;;;26.92;44.91
79028;BME280;68427;48.476;19.102;2023-07-29T11:10:01;97073.69;;;27.03;44.59
79028;BME280;68427;48.476;19.102;2023-07-29T11:12:52;97064.91;;;26.80;45.46
79028;BME280;68427;48.476;19.102;2023-07-29T11:15:21;97060.47;;;26.76;47.34
79028;BME280;68427;48.476;19.102;2023-07-29T11:17:49;97063.03;;;26.81;47.13
79028;BME280;68427;48.476;19.102;2023-07-29T11:20:16;97063.91;;;27.07;48.58
79028;BME280;68427;48.476;19.102;2023-07-29T11:22:42;97078.84;;;27.22;45.91
79028;BME280;68427;48.476;19.102;2023-07-29T11:25:10;97070.53;;;27.85;44.24
79028;BME280;68427;48.476;19.102;2023-07-29T11:27:36;97068.38;;;28.42;45.06
79028;BME280;68427;48.476;19.102;2023-07-29T11:30:04;97059.69;;;29.22;42.46
79028;BME280;68427;48.476;19.102;2023-07-29T11:32:30;97060.00;;;30.05;39.84
79028;BME280;68427;48.476;19.102;2023-07-29T11:35:01;97055.91;;;29.15;40.77
79028;BME280;68427;48.476;19.102;2023-07-29T11:37:27;97061.19;;;29.02;42.63
79028;BME280;68427;48.476;19.102;2023-07-29T11:39:52;97056.69;;;29.15;41.50
79028;BME280;68427;48.476;19.102;2023-07-29T11:42:18;97063.81;;;30.83;37.61
79028;BME280;68427;48.476;19.102;2023-07-29T11:44:44;97052.88;;;31.04;37.85
79028;BME280;68427;48.476;19.102;2023-07-29T11:47:11;97051.38;;;31.31;36.68
79028;BME280;68427;48.476;19.102;2023-07-29T11:49:38;97056.13;;;30.97;37.29
79028;BME280;68427;48.476;19.102;2023-07-29T11:52:09;97061.69;;;31.00;36.33
79028;BME280;68427;48.476;19.102;2023-07-29T11:54:35;97065.75;;;30.36;37.49
79028;BME280;68427;48.476;19.102;2023-07-29T11:57:00;97056.75;;;30.32;38.48
79028;BME280;68427;48.476;19.102;2023-07-29T11:59:27;97062.41;;;29.85;39.08
79028;BME280;68427;48.476;19.102;2023-07-29T12:01:53;97053.50;;;29.64;38.57
79028;BME280;68427;48.476;19.102;2023-07-29T12:04:19;97046.78;;;29.91;38.78
79028;BME280;68427;48.476;19.102;2023-07-29T12:06:45;97061.25;;;30.07;39.48
79028;BME280;68427;48.476;19.102;2023-07-29T12:09:13;97039.09;;;30.14;39.28
79028;BME280;68427;48.476;19.102;2023-07-29T12:11:39;97043.44;;;29.73;39.79
79028;BME280;68427;48.476;19.102;2023-07-29T12:14:07;97035.47;;;29.05;41.10
79028;BME280;68427;48.476;19.102;2023-07-29T12:16:40;97039.56;;;28.26;40.70
79028;BME280;68427;48.476;19.102;2023-07-29T12:19:06;97033.06;;;28.35;42.79
79028;BME280;68427;48.476;19.102;2023-07-29T12:21:31;97042.28;;;28.26;41.84
79028;BME280;68427;48.476;19.102;2023-07-29T12:23:57;97034.06;;;27.78;42.77
79028;BME280;68427;48.476;19.102;2023-07-29T12:26:28;97033.94;;;27.84;44.30
79028;BME280;68427;48.476;19.102;2023-07-29T12:28:54;97038.19;;;27.76;44.61
79028;BME280;68427;48.476;19.102;2023-07-29T12:31:21;97031.31;;;28.31;45.64
79028;BME280;68427;48.476;19.102;2023-07-29T12:33:47;97031.16;;;28.36;42.86
79028;BME280;68427;48.476;19.102;2023-07-29T12:36:13;97023.84;;;28.83;44.00
79028;BME280;68427;48.476;19.102;2023-07-29T12:38:42;97017.97;;;29.20;42.24
79028;BME280;68427;48.476;19.102;2023-07-29T12:41:08;97015.56;;;29.81;42.56
79028;BME280;68427;48.476;19.102;2023-07-29T12:43:35;97022.63;;;30.28;41.69
79028;BME280;68427;48.476;19.102;2023-07-29T12:46:00;97018.44;;;30.30;38.49
79028;BME280;68427;48.476;19.102;2023-07-29T12:48:26;97015.66;;;30.51;38.45